Airfield :







YOU CAN JOIN US ON...

 
LOGIN :

Register | Disclaimer

   EN    FR    IT 

 









Legend :    VFR   Marginal VFR   IFR   Intensive IFR   Very Intensive IFR
Visi :
Ceiling :
>= 8 km
>= 3000ft
5 to 8 km
1000 to 3000 ft
1500m to 5 km
500 to 1000 ft
800 to 1500m
200 to 500 ft
< 800m
< 200 ft
Symbols :   Thunderstorms  Fog  Heavy snow  Heavy precipitations  Wind > 20 kt






- Airport Elevation : 1808 ft
- IATA code : YWK


CYWK - Wabush

CURRENT METAR :
  • 070800Z AUTO 30004KT 9SM OVC028 03/01 A2993 RMK SLP154

EXPIRED METARs :
  • 070700Z AUTO 29004KT 250V330 9SM SCT026 03/00 A2992 RMK SLP152
  • 070600Z AUTO 34005KT 9SM BKN055 04/00 A2992 RMK SLP152

TAF TAF CYWK
Valid from the 07 at 08:00 until the 07 at 20:00 UTC


070738Z 0708/0720 29005KT P6SM FEW020 BKN030
TEMPO 0708/0712 P6SM -SHRA BKN020 BKN030
PROB30 0708/0712 P6SM -SHRA BKN008 BKN015
FM071600 33008KT P6SM FEW020 BKN030 RMK FCST BASED ON AUTO OBS. NXT FCST BY 071400Z
CZUL FIR / North America



MET'MAP, your aeronautical weather chart ! - Copyright ORBIFLY December 2007 - Disclaimer

ORBIFLY MET'MAP TEAM :

Programming & Development : Alexandra Zaïnal
Concept & original design : Baudouin d'Aumeries
Assistance for programming : Marc-Olivier Méhu
Technical & hardware support : Manuel Goepfert

Contact : metmap@orbifly.com




SOURCES & CREDITS :

   NOAA